createdAt,value
2023-05-24T00:02:27.258Z,10.23
2023-05-24T00:05:01.445Z,7.95
2023-05-24T00:07:34.207Z,10.63
2023-05-24T00:10:07.252Z,10.93
2023-05-24T00:12:39.504Z,8.90
2023-05-24T00:15:11.832Z,9.68
2023-05-24T00:17:44.031Z,9.15
2023-05-24T00:20:17.442Z,10.75
2023-05-24T00:22:49.862Z,8.68
2023-05-24T00:25:22.072Z,12.57
2023-05-24T00:27:54.246Z,9.85
2023-05-24T00:30:27.213Z,13.07
2023-05-24T00:33:01.014Z,9.70
2023-05-24T00:35:33.523Z,11.40
2023-05-24T00:38:05.752Z,8.00
2023-05-24T00:40:38.589Z,8.80
2023-05-24T00:43:10.837Z,7.50
2023-05-24T00:45:43.043Z,8.52
2023-05-24T00:48:15.327Z,7.78
2023-05-24T00:50:47.621Z,8.68
2023-05-24T00:53:21.461Z,9.35
2023-05-24T00:55:55.144Z,8.65
2023-05-24T00:58:31.223Z,7.55
2023-05-24T01:01:05.164Z,7.68
2023-05-24T01:03:38.001Z,8.10
2023-05-24T01:06:10.393Z,6.20
2023-05-24T01:09:17.352Z,8.68
2023-05-24T01:12:02.181Z,9.45
2023-05-24T01:14:50.489Z,8.93
2023-05-24T01:17:32.772Z,8.60
2023-05-24T01:20:11.425Z,9.95
2023-05-24T01:22:44.860Z,9.50
2023-05-24T01:25:33.202Z,10.50
2023-05-24T01:28:09.378Z,11.25
2023-05-24T01:30:42.887Z,10.75
2023-05-24T01:33:15.463Z,9.68
2023-05-24T01:35:47.601Z,11.02
2023-05-24T01:38:20.930Z,10.07
2023-05-24T01:41:01.453Z,10.13
2023-05-24T01:43:45.188Z,10.45
2023-05-24T01:46:29.913Z,15.77
2023-05-24T01:49:17.637Z,13.27
2023-05-24T01:51:55.125Z,11.40
2023-05-24T01:54:30.969Z,11.35
2023-05-24T01:57:07.700Z,11.43
2023-05-24T01:59:43.523Z,12.70
2023-05-24T02:02:15.972Z,15.25
2023-05-24T02:04:48.230Z,13.50
2023-05-24T02:07:20.722Z,12.68
2023-05-24T02:09:52.942Z,11.70
2023-05-24T02:12:25.101Z,14.18
2023-05-24T02:14:57.545Z,11.20
2023-05-24T02:17:33.453Z,13.23
2023-05-24T02:20:07.243Z,14.02
2023-05-24T02:22:40.402Z,13.85
2023-05-24T02:25:12.549Z,10.75
2023-05-24T02:27:47.499Z,12.25
2023-05-24T02:30:19.819Z,12.95
2023-05-24T02:32:52.205Z,12.18
2023-05-24T02:35:24.376Z,15.10
2023-05-24T02:37:58.824Z,14.45
2023-05-24T02:40:31.308Z,11.63
2023-05-24T02:43:03.573Z,13.27
2023-05-24T02:45:37.003Z,16.90
2023-05-24T02:50:41.775Z,15.55
2023-05-24T02:53:14.381Z,15.90
2023-05-24T02:55:46.906Z,15.30
2023-05-24T02:58:20.977Z,14.80
2023-05-24T03:00:55.436Z,16.42
2023-05-24T03:03:27.986Z,16.23
2023-05-24T03:06:00.208Z,15.45
2023-05-24T03:08:32.405Z,15.73
2023-05-24T03:11:07.519Z,16.30
2023-05-24T03:13:40.807Z,21.02
2023-05-24T03:16:13.192Z,20.75
2023-05-24T03:18:45.348Z,20.20
2023-05-24T03:21:20.963Z,19.58
2023-05-24T03:23:53.599Z,21.30
2023-05-24T03:26:27.178Z,19.00
2023-05-24T03:28:59.542Z,17.88
2023-05-24T03:31:38.739Z,19.80
2023-05-24T03:34:15.042Z,21.15
2023-05-24T03:36:47.356Z,18.52
2023-05-24T03:39:22.339Z,17.42
2023-05-24T03:42:00.976Z,18.50
2023-05-24T03:44:33.609Z,18.30
2023-05-24T03:47:05.982Z,16.20
2023-05-24T03:49:38.267Z,17.83
2023-05-24T03:52:10.621Z,15.52
2023-05-24T03:54:43.352Z,15.63
2023-05-24T03:57:16.269Z,14.15
2023-05-24T03:59:48.964Z,14.32
2023-05-24T04:02:22.313Z,15.27
2023-05-24T04:04:54.631Z,14.73
2023-05-24T04:07:26.812Z,14.88
2023-05-24T04:09:58.964Z,15.25
2023-05-24T04:12:32.484Z,14.65
2023-05-24T04:15:05.134Z,15.90
2023-05-24T04:17:37.651Z,16.03
2023-05-24T04:20:11.904Z,14.13
2023-05-24T04:22:44.972Z,15.25
2023-05-24T04:25:18.055Z,16.00
2023-05-24T04:27:51.112Z,20.55
2023-05-24T04:30:23.538Z,18.77
2023-05-24T04:32:59.175Z,14.00
2023-05-24T04:35:33.798Z,16.90
2023-05-24T04:38:06.084Z,14.25
2023-05-24T04:40:38.756Z,13.85
2023-05-24T04:43:12.045Z,14.93
2023-05-24T04:45:44.311Z,14.57
2023-05-24T04:48:16.913Z,13.55
2023-05-24T04:50:49.224Z,13.50
2023-05-24T04:53:23.976Z,14.25
2023-05-24T04:55:56.396Z,12.70
2023-05-24T04:58:29.649Z,12.63
2023-05-24T05:01:02.877Z,9.77
2023-05-24T05:03:36.435Z,16.75
2023-05-24T05:06:08.705Z,11.80
2023-05-24T05:08:40.959Z,12.93
2023-05-24T05:11:14.406Z,13.18
2023-05-24T05:13:46.740Z,14.50
2023-05-24T05:16:19.354Z,15.25
2023-05-24T05:18:51.521Z,12.88
2023-05-24T05:21:23.725Z,13.77
2023-05-24T05:23:56.189Z,17.20
2023-05-24T05:26:29.529Z,13.70
2023-05-24T05:29:01.779Z,12.95
2023-05-24T05:31:34.095Z,14.95
2023-05-24T05:34:09.948Z,18.83
2023-05-24T05:36:42.942Z,18.27
2023-05-24T05:39:15.289Z,14.43
2023-05-24T05:44:24.564Z,13.35
2023-05-24T05:46:57.044Z,16.00
2023-05-24T05:49:29.934Z,15.00
2023-05-24T05:52:03.303Z,16.63
2023-05-24T05:54:36.076Z,19.35
2023-05-24T05:57:11.209Z,16.23
2023-05-24T05:59:43.570Z,15.10
2023-05-24T06:02:15.783Z,16.40
2023-05-24T06:04:48.019Z,19.40
2023-05-24T06:07:20.411Z,19.40
2023-05-24T06:09:52.932Z,22.83
2023-05-24T06:12:25.207Z,22.90
2023-05-24T06:14:57.805Z,26.38
2023-05-24T06:17:30.385Z,24.15
2023-05-24T06:20:08.147Z,25.20
2023-05-24T06:22:43.191Z,24.75
2023-05-24T06:25:19.319Z,21.15
2023-05-24T06:27:52.366Z,22.63
2023-05-24T06:30:24.601Z,23.55
2023-05-24T06:32:57.684Z,24.15
2023-05-24T06:35:29.975Z,20.83
2023-05-24T06:38:02.331Z,24.40
2023-05-24T06:40:34.949Z,18.02
2023-05-24T06:43:07.163Z,22.53
2023-05-24T06:45:39.471Z,20.23
2023-05-24T06:48:11.833Z,24.27
2023-05-24T06:50:45.037Z,21.70
2023-05-24T06:53:17.386Z,22.55
2023-05-24T06:55:51.071Z,21.42
2023-05-24T06:58:23.882Z,19.80
2023-05-24T07:00:56.441Z,18.70
2023-05-24T07:03:29.639Z,22.50
2023-05-24T07:06:01.941Z,21.13
2023-05-24T07:08:34.253Z,24.25
2023-05-24T07:11:08.393Z,18.02
2023-05-24T07:13:40.698Z,20.15
2023-05-24T07:16:13.618Z,20.73
2023-05-24T07:18:46.358Z,16.92
2023-05-24T07:21:18.562Z,19.08
2023-05-24T07:23:52.159Z,17.60
2023-05-24T07:28:57.105Z,16.33
2023-05-24T07:31:33.508Z,15.60
2023-05-24T07:34:06.020Z,13.93
2023-05-24T07:36:38.215Z,15.57
2023-05-24T07:39:11.133Z,18.65
2023-05-24T07:41:43.282Z,14.75
2023-05-24T07:44:15.994Z,14.93
2023-05-24T07:46:48.278Z,12.50
2023-05-24T07:49:20.535Z,13.40
2023-05-24T07:51:53.455Z,14.63
2023-05-24T07:54:26.780Z,12.93
2023-05-24T07:56:58.959Z,13.95
2023-05-24T07:59:31.146Z,13.63
2023-05-24T08:02:05.819Z,15.70
2023-05-24T08:04:38.874Z,17.45
2023-05-24T08:07:11.171Z,14.52
2023-05-24T08:09:44.008Z,14.13
2023-05-24T08:12:17.367Z,21.15
2023-05-24T08:14:49.634Z,18.20
2023-05-24T08:17:21.872Z,14.10
2023-05-24T08:19:54.553Z,25.98
2023-05-24T08:22:26.799Z,19.87
2023-05-24T08:24:59.693Z,11.75
2023-05-24T08:27:33.184Z,13.70
2023-05-24T08:30:06.737Z,14.10
2023-05-24T08:35:21.063Z,17.08
2023-05-24T08:37:54.592Z,13.90
2023-05-24T08:40:26.988Z,13.33
2023-05-24T08:43:03.004Z,18.25
2023-05-24T08:45:38.164Z,12.85
2023-05-24T08:48:10.740Z,12.20
2023-05-24T08:50:43.438Z,13.65
2023-05-24T08:53:16.753Z,10.55
2023-05-24T08:55:50.291Z,12.38
2023-05-24T08:58:22.561Z,11.40
2023-05-24T09:00:55.883Z,8.85
2023-05-24T09:03:29.038Z,16.33
2023-05-24T09:06:03.259Z,12.13
2023-05-24T09:08:41.137Z,13.52
2023-05-24T09:11:17.239Z,22.42
2023-05-24T09:13:49.881Z,13.50
2023-05-24T09:16:22.415Z,12.90
2023-05-24T09:18:55.432Z,15.93
2023-05-24T09:21:27.991Z,16.85
2023-05-24T09:24:00.342Z,17.77
2023-05-24T09:26:32.595Z,14.40
2023-05-24T09:29:08.564Z,15.70
2023-05-24T09:31:40.889Z,15.43
2023-05-24T09:34:19.671Z,11.98
2023-05-24T09:36:53.231Z,15.30
2023-05-24T09:39:25.947Z,17.65
2023-05-24T09:41:59.048Z,15.43
2023-05-24T09:44:31.229Z,11.82
2023-05-24T09:47:05.375Z,13.88
2023-05-24T09:49:38.497Z,13.20
2023-05-24T09:52:15.116Z,16.47
2023-05-24T09:54:48.422Z,14.75
2023-05-24T09:57:26.611Z,14.55
2023-05-24T10:00:08.589Z,13.82
2023-05-24T10:02:52.373Z,14.82
2023-05-24T10:05:27.235Z,16.85
2023-05-24T10:08:00.935Z,16.27
2023-05-24T10:13:06.121Z,15.35
2023-05-24T10:15:38.970Z,14.15
2023-05-24T10:18:13.926Z,18.05
2023-05-24T10:20:49.965Z,17.67
2023-05-24T10:23:24.960Z,17.98
2023-05-24T10:26:11.820Z,15.25
2023-05-24T10:28:49.062Z,19.23
2023-05-24T10:31:24.369Z,20.13
2023-05-24T10:34:07.064Z,15.35
2023-05-24T10:36:40.909Z,18.40
2023-05-24T10:39:13.781Z,17.23
2023-05-24T10:41:46.499Z,18.20
2023-05-24T10:44:20.610Z,20.83
2023-05-24T10:47:26.822Z,23.70
2023-05-24T10:50:00.430Z,20.20
2023-05-24T10:55:10.700Z,22.20
2023-05-24T10:57:43.408Z,21.42
2023-05-24T11:00:35.297Z,21.63
2023-05-24T11:03:11.143Z,21.13
2023-05-24T11:05:48.234Z,24.77
2023-05-24T11:08:33.665Z,21.20
2023-05-24T11:13:49.694Z,23.08
2023-05-24T11:16:38.231Z,23.10
2023-05-24T11:19:14.601Z,20.60
2023-05-24T11:21:49.668Z,21.33
2023-05-24T11:24:22.392Z,18.02
2023-05-24T11:26:55.310Z,23.70
2023-05-24T11:29:28.178Z,17.90
2023-05-24T11:32:08.110Z,21.87
2023-05-24T11:34:40.560Z,23.02
2023-05-24T11:37:15.959Z,23.52
2023-05-24T11:39:53.253Z,23.48
2023-05-24T11:42:28.490Z,23.42
2023-05-24T11:45:01.341Z,22.05
2023-05-24T11:47:38.641Z,21.98
2023-05-24T11:50:15.086Z,23.42
2023-05-24T11:52:47.428Z,25.17
2023-05-24T11:55:26.097Z,22.42
2023-05-24T11:58:00.103Z,23.75
2023-05-24T12:00:32.478Z,30.45
2023-05-24T12:03:07.938Z,25.33
2023-05-24T12:05:41.394Z,23.73
2023-05-24T12:08:15.972Z,23.83
2023-05-24T12:10:49.423Z,25.33
2023-05-24T12:13:23.922Z,24.80
2023-05-24T12:15:58.397Z,25.77
2023-05-24T12:18:31.369Z,22.92
2023-05-24T12:21:09.177Z,26.45
2023-05-24T12:23:41.520Z,26.70
2023-05-24T12:26:15.233Z,23.05
2023-05-24T12:28:53.037Z,22.38
2023-05-24T12:31:25.332Z,23.73
2023-05-24T12:33:57.973Z,20.67
2023-05-24T12:36:30.843Z,23.67
2023-05-24T12:39:23.771Z,20.10
2023-05-24T12:41:56.244Z,21.33
2023-05-24T12:44:34.779Z,19.70
2023-05-24T12:47:08.953Z,20.02
2023-05-24T12:49:41.480Z,23.33
2023-05-24T12:52:13.737Z,28.38
2023-05-24T12:54:46.525Z,21.98
2023-05-24T12:57:18.705Z,21.07
2023-05-24T12:59:51.557Z,18.38
2023-05-24T13:02:23.820Z,23.58
2023-05-24T13:04:56.065Z,25.77
2023-05-24T13:07:28.471Z,21.73
2023-05-24T13:10:00.633Z,26.55
2023-05-24T13:12:33.593Z,22.58
2023-05-24T13:20:24.722Z,20.02
2023-05-24T13:22:57.350Z,21.17
2023-05-24T13:25:29.866Z,22.67
2023-05-24T13:28:04.154Z,22.23
2023-05-24T13:30:37.107Z,17.00
2023-05-24T13:33:10.456Z,19.83
2023-05-24T13:35:42.907Z,31.33
2023-05-24T13:38:15.142Z,20.27
2023-05-24T13:40:48.369Z,24.15
2023-05-24T13:43:20.653Z,23.90
2023-05-24T13:45:53.875Z,30.15
2023-05-24T13:48:26.238Z,24.80
2023-05-24T13:50:58.508Z,22.88
2023-05-24T13:53:30.648Z,23.52
2023-05-24T13:56:03.153Z,28.27
2023-05-24T13:58:35.525Z,24.15
2023-05-24T14:01:08.020Z,24.25
2023-05-24T14:03:41.270Z,20.42
2023-05-24T14:06:13.709Z,25.02
2023-05-24T14:08:46.221Z,26.15
2023-05-24T14:11:19.802Z,25.40
2023-05-24T14:16:28.393Z,28.70
2023-05-24T14:19:00.676Z,27.63
2023-05-24T14:21:33.187Z,21.17
2023-05-24T14:24:05.446Z,26.35
2023-05-24T14:26:37.764Z,26.45
2023-05-24T14:29:10.385Z,25.15
2023-05-24T14:31:43.183Z,24.35
2023-05-24T14:34:15.593Z,22.25
2023-05-24T14:36:48.723Z,19.58
2023-05-24T14:39:21.884Z,30.25
2023-05-24T14:41:54.609Z,18.60
2023-05-24T14:44:26.872Z,19.87
2023-05-24T14:46:59.025Z,23.45
2023-05-24T14:49:31.223Z,24.70
2023-05-24T14:52:03.744Z,23.88
2023-05-24T14:54:36.044Z,19.50
2023-05-24T14:57:08.684Z,21.83
2023-05-24T14:59:40.824Z,24.05
2023-05-24T15:02:13.063Z,17.77
2023-05-24T15:04:45.565Z,17.67
2023-05-24T15:07:17.956Z,21.70
2023-05-24T15:09:50.256Z,21.75
2023-05-24T15:12:23.268Z,19.98
2023-05-24T15:14:55.524Z,21.38
2023-05-24T15:17:28.027Z,22.27
2023-05-24T15:20:00.353Z,22.08
2023-05-24T15:22:34.122Z,18.35
2023-05-24T15:25:07.446Z,21.95
2023-05-24T15:27:40.170Z,21.27
2023-05-24T15:30:12.561Z,18.30
2023-05-24T15:32:47.109Z,18.85
2023-05-24T15:35:19.314Z,18.95
2023-05-24T15:37:51.837Z,19.10
2023-05-24T15:40:24.773Z,17.90
2023-05-24T15:42:57.109Z,19.45
2023-05-24T15:45:29.475Z,21.15
2023-05-24T15:48:04.848Z,21.40
2023-05-24T15:53:16.303Z,20.15
2023-05-24T15:55:48.618Z,27.30
2023-05-24T15:58:20.834Z,22.65
2023-05-24T16:00:53.666Z,23.73
2023-05-24T16:03:26.151Z,16.52
2023-05-24T16:05:58.909Z,19.30
2023-05-24T16:08:31.494Z,24.58
2023-05-24T16:11:08.335Z,22.10
2023-05-24T16:13:40.783Z,23.05
2023-05-24T16:16:12.963Z,21.73
2023-05-24T16:18:45.309Z,27.85
2023-05-24T16:21:17.821Z,23.23
2023-05-24T16:23:50.617Z,23.13
2023-05-24T16:26:23.020Z,22.98
2023-05-24T16:28:55.182Z,18.27
2023-05-24T16:31:27.539Z,27.08
2023-05-24T16:33:59.677Z,19.30
2023-05-24T16:36:33.167Z,18.83
2023-05-24T16:41:38.495Z,18.25
2023-05-24T16:44:11.615Z,21.58
2023-05-24T16:46:45.279Z,21.73
2023-05-24T16:49:17.969Z,22.65
2023-05-24T16:51:50.149Z,22.58
2023-05-24T16:54:22.851Z,18.83
2023-05-24T16:56:55.237Z,19.52
2023-05-24T16:59:27.759Z,17.00
2023-05-24T17:02:00.596Z,18.90
2023-05-24T17:04:32.922Z,18.48
2023-05-24T17:07:05.897Z,19.38
2023-05-24T17:09:38.591Z,15.63
2023-05-24T17:12:10.870Z,20.93
2023-05-24T17:14:43.413Z,27.13
2023-05-24T17:17:16.564Z,14.07
2023-05-24T17:19:49.298Z,21.35
2023-05-24T17:22:21.625Z,18.83
2023-05-24T17:24:53.901Z,19.20
2023-05-24T17:27:26.035Z,17.15
2023-05-24T17:29:58.146Z,19.50
2023-05-24T17:32:31.402Z,21.27
2023-05-24T17:35:04.102Z,19.67
2023-05-24T17:37:36.311Z,12.55
2023-05-24T17:40:09.168Z,15.30
2023-05-24T17:42:43.484Z,13.98
2023-05-24T17:45:16.655Z,13.52
2023-05-24T17:47:50.298Z,16.20
2023-05-24T17:50:22.710Z,25.52
2023-05-24T17:52:56.326Z,13.00
2023-05-24T17:55:29.212Z,13.68
2023-05-24T17:58:02.177Z,22.42
2023-05-24T18:00:34.328Z,18.60
2023-05-24T18:03:07.646Z,16.45
2023-05-24T18:05:39.831Z,18.15
2023-05-24T18:08:12.171Z,22.20
2023-05-24T18:10:44.464Z,16.02
2023-05-24T18:13:17.203Z,16.95
2023-05-24T18:15:50.292Z,20.15
2023-05-24T18:18:22.502Z,15.20
2023-05-24T18:20:54.728Z,16.13
2023-05-24T18:23:26.854Z,19.25
2023-05-24T18:26:00.482Z,14.82
2023-05-24T18:28:39.143Z,16.17
2023-05-24T18:31:11.435Z,18.80
2023-05-24T18:33:43.780Z,15.10
2023-05-24T18:36:16.202Z,17.05
2023-05-24T18:38:48.618Z,17.80
2023-05-24T18:41:21.259Z,12.43
2023-05-24T18:43:54.520Z,17.38
2023-05-24T18:46:28.212Z,15.80
2023-05-24T18:51:34.399Z,26.83
2023-05-24T18:54:07.136Z,21.83
2023-05-24T18:56:39.923Z,19.92
2023-05-24T18:59:12.654Z,21.43
2023-05-24T19:01:45.062Z,25.63
2023-05-24T19:04:17.692Z,27.75
2023-05-24T19:06:50.832Z,22.52
2023-05-24T19:09:25.895Z,24.92
2023-05-24T19:11:59.447Z,26.23
2023-05-24T19:17:05.301Z,23.85
2023-05-24T19:19:37.721Z,24.55
2023-05-24T19:22:10.682Z,26.53
2023-05-24T19:24:43.137Z,22.42
2023-05-24T19:27:15.845Z,26.67
2023-05-24T19:29:48.063Z,24.10
2023-05-24T19:32:20.595Z,22.95
2023-05-24T19:34:53.119Z,20.70
2023-05-24T19:37:25.582Z,16.77
2023-05-24T19:39:58.488Z,23.30
2023-05-24T19:42:30.781Z,17.25
2023-05-24T19:45:03.151Z,19.95
2023-05-24T19:47:35.397Z,19.60
2023-05-24T19:50:08.122Z,17.95
2023-05-24T19:52:41.002Z,13.18
2023-05-24T19:55:13.136Z,14.53
2023-05-24T19:57:45.333Z,12.48
2023-05-24T20:00:17.870Z,12.60
2023-05-24T20:02:50.094Z,15.15
2023-05-24T20:05:22.562Z,13.88
2023-05-24T20:07:55.004Z,13.63
2023-05-24T20:10:29.984Z,13.10
2023-05-24T20:13:04.363Z,26.23
2023-05-24T20:15:36.639Z,15.25
2023-05-24T20:18:08.960Z,21.33
2023-05-24T20:20:41.345Z,23.38
2023-05-24T20:23:13.528Z,23.27
2023-05-24T20:25:46.207Z,17.73
2023-05-24T20:28:29.539Z,18.55
2023-05-24T20:31:02.753Z,18.83
2023-05-24T20:33:38.467Z,20.77
2023-05-24T20:36:11.425Z,14.50
2023-05-24T20:38:43.672Z,21.70
2023-05-24T20:41:16.833Z,16.70
2023-05-24T20:43:51.133Z,19.58
2023-05-24T20:46:23.677Z,18.10
2023-05-24T20:48:57.314Z,19.55
2023-05-24T20:51:29.486Z,14.95
2023-05-24T20:54:01.608Z,22.70
2023-05-24T20:56:33.862Z,26.80
2023-05-24T20:59:06.065Z,19.02
2023-05-24T21:01:38.232Z,18.27
2023-05-24T21:04:10.541Z,20.02
2023-05-24T21:06:42.911Z,23.27
2023-05-24T21:09:15.118Z,18.38
2023-05-24T21:11:47.857Z,12.50
2023-05-24T21:14:20.076Z,16.88
2023-05-24T21:16:53.475Z,19.02
2023-05-24T21:19:25.767Z,22.58
2023-05-24T21:21:58.140Z,15.48
2023-05-24T21:24:30.448Z,17.90
2023-05-24T21:27:03.088Z,15.10
2023-05-24T21:29:38.152Z,17.88
2023-05-24T21:32:10.528Z,32.78
2023-05-24T21:34:42.796Z,17.25
2023-05-24T21:37:14.956Z,18.15
2023-05-24T21:39:48.223Z,20.52
2023-05-24T21:42:20.796Z,14.82
2023-05-24T21:44:52.994Z,16.45
2023-05-24T21:47:25.193Z,18.17
2023-05-24T21:49:57.940Z,15.07
2023-05-24T21:52:30.159Z,17.02
2023-05-24T21:55:02.429Z,15.35
2023-05-24T21:57:34.950Z,18.17
2023-05-24T22:00:10.554Z,17.60
2023-05-24T22:02:42.910Z,16.55
2023-05-24T22:05:15.394Z,19.23
2023-05-24T22:07:48.034Z,14.05
2023-05-24T22:10:20.854Z,19.15
2023-05-24T22:12:52.992Z,16.70
2023-05-24T22:15:25.290Z,18.33
2023-05-24T22:17:58.877Z,16.30
2023-05-24T22:23:04.664Z,18.25
2023-05-24T22:25:36.920Z,14.15
2023-05-24T22:28:09.901Z,14.38
2023-05-24T22:30:42.072Z,15.18
2023-05-24T22:33:14.522Z,17.10
2023-05-24T22:35:46.759Z,18.10
2023-05-24T22:38:18.998Z,21.75
2023-05-24T22:40:51.181Z,18.80
2023-05-24T22:43:23.322Z,21.30
2023-05-24T22:45:56.828Z,22.25
2023-05-24T22:48:29.501Z,15.52
2023-05-24T22:51:02.191Z,13.32
2023-05-24T22:53:34.404Z,19.20
2023-05-24T22:56:08.049Z,18.60
2023-05-24T22:58:40.816Z,16.75
2023-05-24T23:01:13.078Z,13.15
2023-05-24T23:03:45.564Z,14.27
2023-05-24T23:06:18.002Z,19.23
2023-05-24T23:08:50.193Z,17.45
2023-05-24T23:11:22.907Z,14.32
2023-05-24T23:13:59.782Z,16.90
2023-05-24T23:16:34.358Z,16.30
2023-05-24T23:19:07.199Z,17.10
2023-05-24T23:21:39.286Z,15.43
2023-05-24T23:24:14.720Z,14.27
2023-05-24T23:26:46.963Z,15.90
2023-05-24T23:29:19.092Z,19.48
2023-05-24T23:31:51.347Z,15.32
2023-05-24T23:34:23.594Z,17.00
2023-05-24T23:36:56.115Z,19.02
2023-05-24T23:39:28.409Z,20.23
2023-05-24T23:42:02.393Z,18.30
2023-05-24T23:44:34.641Z,14.05
2023-05-24T23:47:06.911Z,17.20
2023-05-24T23:49:39.130Z,14.63
2023-05-24T23:52:12.366Z,17.00
2023-05-24T23:54:44.467Z,16.52
2023-05-24T23:57:17.668Z,13.07
2023-05-24T23:59:49.794Z,12.20
